sensor_id;sensor_type;location;lat;lon;timestamp;pressure;altitude;pressure_sealevel;temperature;humidity
12785;BME280;6456;42.680;23.260;2023-11-19T00:00:08;94684.53;;;4.34;100.00
12785;BME280;6456;42.680;23.260;2023-11-19T00:02:38;94643.47;;;4.14;100.00
12785;BME280;6456;42.680;23.260;2023-11-19T00:05:06;94658.75;;;4.17;100.00
12785;BME280;6456;42.680;23.260;2023-11-19T00:07:35;94638.81;;;4.01;100.00
12785;BME280;6456;42.680;23.260;2023-11-19T00:10:06;94686.31;;;4.34;100.00
12785;BME280;6456;42.680;23.260;2023-11-19T00:12:37;94661.41;;;4.31;100.00
12785;BME280;6456;42.680;23.260;2023-11-19T00:15:09;94609.16;;;4.10;100.00
12785;BME280;6456;42.680;23.260;2023-11-19T00:17:37;94583.41;;;3.93;100.00
12785;BME280;6456;42.680;23.260;2023-11-19T00:20:07;94656.34;;;4.38;100.00
12785;BME280;6456;42.680;23.260;2023-11-19T00:22:34;94660.41;;;4.40;100.00
12785;BME280;6456;42.680;23.260;2023-11-19T00:25:04;94675.31;;;4.46;100.00
12785;BME280;6456;42.680;23.260;2023-11-19T00:27:33;94588.97;;;3.89;100.00
12785;BME280;6456;42.680;23.260;2023-11-19T00:30:00;94603.31;;;4.08;100.00
12785;BME280;6456;42.680;23.260;2023-11-19T00:32:35;94662.03;;;4.33;100.00
12785;BME280;6456;42.680;23.260;2023-11-19T00:35:04;94606.78;;;4.01;100.00
12785;BME280;6456;42.680;23.260;2023-11-19T00:37:31;94652.03;;;4.22;100.00
12785;BME280;6456;42.680;23.260;2023-11-19T00:39:58;94682.84;;;4.41;100.00
12785;BME280;6456;42.680;23.260;2023-11-19T00:42:26;94686.19;;;4.27;100.00
12785;BME280;6456;42.680;23.260;2023-11-19T00:44:53;94638.03;;;4.01;100.00
12785;BME280;6456;42.680;23.260;2023-11-19T00:47:25;94681.81;;;4.28;100.00
12785;BME280;6456;42.680;23.260;2023-11-19T00:49:54;94630.84;;;4.03;100.00
12785;BME280;6456;42.680;23.260;2023-11-19T00:52:21;94657.22;;;4.00;100.00
12785;BME280;6456;42.680;23.260;2023-11-19T00:54:49;94640.28;;;4.04;100.00
12785;BME280;6456;42.680;23.260;2023-11-19T00:57:17;94677.16;;;4.15;100.00
12785;BME280;6456;42.680;23.260;2023-11-19T00:59:47;94648.44;;;4.01;100.00
12785;BME280;6456;42.680;23.260;2023-11-19T01:02:14;94686.09;;;4.21;100.00
12785;BME280;6456;42.680;23.260;2023-11-19T01:04:41;94644.25;;;3.92;100.00
12785;BME280;6456;42.680;23.260;2023-11-19T01:07:11;94607.75;;;3.77;100.00
12785;BME280;6456;42.680;23.260;2023-11-19T01:09:38;94666.25;;;4.12;100.00
12785;BME280;6456;42.680;23.260;2023-11-19T01:12:06;94592.75;;;3.79;100.00
12785;BME280;6456;42.680;23.260;2023-11-19T01:14:34;94652.56;;;3.87;100.00
12785;BME280;6456;42.680;23.260;2023-11-19T01:17:01;94667.41;;;4.09;100.00
12785;BME280;6456;42.680;23.260;2023-11-19T01:19:30;94636.84;;;3.80;100.00
12785;BME280;6456;42.680;23.260;2023-11-19T01:21:59;94648.16;;;3.96;100.00
12785;BME280;6456;42.680;23.260;2023-11-19T01:24:28;94657.34;;;4.06;100.00
12785;BME280;6456;42.680;23.260;2023-11-19T01:26:56;94653.28;;;4.04;100.00
12785;BME280;6456;42.680;23.260;2023-11-19T01:29:25;94661.09;;;4.04;100.00
12785;BME280;6456;42.680;23.260;2023-11-19T01:31:52;94624.84;;;3.71;100.00
12785;BME280;6456;42.680;23.260;2023-11-19T01:34:19;94669.34;;;3.84;100.00
12785;BME280;6456;42.680;23.260;2023-11-19T01:36:46;94716.75;;;4.11;100.00
12785;BME280;6456;42.680;23.260;2023-11-19T01:39:14;94698.59;;;3.95;100.00
12785;BME280;6456;42.680;23.260;2023-11-19T01:41:44;94674.00;;;3.58;100.00
12785;BME280;6456;42.680;23.260;2023-11-19T01:44:11;94689.06;;;3.71;100.00
12785;BME280;6456;42.680;23.260;2023-11-19T01:46:40;94647.69;;;3.53;100.00
12785;BME280;6456;42.680;23.260;2023-11-19T01:49:09;94657.25;;;3.61;100.00
12785;BME280;6456;42.680;23.260;2023-11-19T01:51:38;94708.09;;;3.79;100.00
12785;BME280;6456;42.680;23.260;2023-11-19T01:54:06;94722.94;;;4.02;100.00
12785;BME280;6456;42.680;23.260;2023-11-19T01:56:33;94703.81;;;3.86;100.00
12785;BME280;6456;42.680;23.260;2023-11-19T01:59:04;94690.84;;;3.78;100.00
12785;BME280;6456;42.680;23.260;2023-11-19T02:01:32;94676.97;;;3.86;100.00
12785;BME280;6456;42.680;23.260;2023-11-19T02:04:05;94734.28;;;4.17;100.00
12785;BME280;6456;42.680;23.260;2023-11-19T02:06:33;94704.69;;;4.10;100.00
12785;BME280;6456;42.680;23.260;2023-11-19T02:09:03;94680.97;;;4.05;100.00
12785;BME280;6456;42.680;23.260;2023-11-19T02:11:33;94674.53;;;3.93;100.00
12785;BME280;6456;42.680;23.260;2023-11-19T02:14:00;94717.97;;;4.23;100.00
12785;BME280;6456;42.680;23.260;2023-11-19T02:16:30;94696.41;;;4.06;100.00
12785;BME280;6456;42.680;23.260;2023-11-19T02:18:57;94653.41;;;3.87;100.00
12785;BME280;6456;42.680;23.260;2023-11-19T02:21:25;94693.47;;;4.09;100.00
12785;BME280;6456;42.680;23.260;2023-11-19T02:23:52;94653.00;;;3.68;100.00
12785;BME280;6456;42.680;23.260;2023-11-19T02:26:24;94665.63;;;3.79;100.00
12785;BME280;6456;42.680;23.260;2023-11-19T02:28:55;94696.31;;;3.92;100.00
12785;BME280;6456;42.680;23.260;2023-11-19T02:31:24;94652.53;;;3.64;100.00
12785;BME280;6456;42.680;23.260;2023-11-19T02:33:53;94684.03;;;3.77;100.00
12785;BME280;6456;42.680;23.260;2023-11-19T02:36:20;94671.66;;;3.79;100.00
12785;BME280;6456;42.680;23.260;2023-11-19T02:38:48;94660.63;;;3.69;100.00
12785;BME280;6456;42.680;23.260;2023-11-19T02:41:15;94670.88;;;3.71;100.00
12785;BME280;6456;42.680;23.260;2023-11-19T02:43:42;94660.03;;;3.59;100.00
12785;BME280;6456;42.680;23.260;2023-11-19T02:46:11;94680.19;;;3.65;100.00
12785;BME280;6456;42.680;23.260;2023-11-19T02:48:38;94654.81;;;3.59;100.00
12785;BME280;6456;42.680;23.260;2023-11-19T02:51:06;94692.19;;;3.66;100.00
12785;BME280;6456;42.680;23.260;2023-11-19T02:53:35;94699.19;;;3.66;100.00
12785;BME280;6456;42.680;23.260;2023-11-19T02:56:03;94677.59;;;3.57;100.00
12785;BME280;6456;42.680;23.260;2023-11-19T02:58:42;94655.56;;;3.37;100.00
12785;BME280;6456;42.680;23.260;2023-11-19T03:01:11;94645.50;;;3.34;100.00
12785;BME280;6456;42.680;23.260;2023-11-19T03:03:49;94643.38;;;3.38;100.00
12785;BME280;6456;42.680;23.260;2023-11-19T03:06:20;94692.41;;;3.57;100.00
12785;BME280;6456;42.680;23.260;2023-11-19T03:08:48;94635.09;;;3.26;100.00
12785;BME280;6456;42.680;23.260;2023-11-19T03:11:15;94669.38;;;3.38;100.00
12785;BME280;6456;42.680;23.260;2023-11-19T03:13:42;94708.13;;;3.63;100.00
12785;BME280;6456;42.680;23.260;2023-11-19T03:16:11;94674.25;;;3.41;100.00
12785;BME280;6456;42.680;23.260;2023-11-19T03:18:38;94681.56;;;3.45;100.00
12785;BME280;6456;42.680;23.260;2023-11-19T03:21:06;94711.41;;;3.65;100.00
12785;BME280;6456;42.680;23.260;2023-11-19T03:23:33;94680.88;;;3.51;100.00
12785;BME280;6456;42.680;23.260;2023-11-19T03:26:00;94648.72;;;3.36;100.00
12785;BME280;6456;42.680;23.260;2023-11-19T03:28:31;94674.38;;;3.55;100.00
12785;BME280;6456;42.680;23.260;2023-11-19T03:31:01;94699.84;;;3.68;100.00
12785;BME280;6456;42.680;23.260;2023-11-19T03:33:36;94669.91;;;3.33;100.00
12785;BME280;6456;42.680;23.260;2023-11-19T03:36:03;94691.88;;;3.61;100.00
12785;BME280;6456;42.680;23.260;2023-11-19T03:38:31;94693.84;;;3.59;100.00
12785;BME280;6456;42.680;23.260;2023-11-19T03:40:58;94668.75;;;3.28;100.00
12785;BME280;6456;42.680;23.260;2023-11-19T03:43:27;94705.59;;;3.55;100.00
12785;BME280;6456;42.680;23.260;2023-11-19T03:45:55;94674.09;;;3.42;100.00
12785;BME280;6456;42.680;23.260;2023-11-19T03:48:22;94716.97;;;3.54;100.00
12785;BME280;6456;42.680;23.260;2023-11-19T03:50:50;94739.72;;;3.52;100.00
12785;BME280;6456;42.680;23.260;2023-11-19T03:53:17;94732.91;;;3.51;100.00
12785;BME280;6456;42.680;23.260;2023-11-19T03:55:45;94706.25;;;3.41;100.00
12785;BME280;6456;42.680;23.260;2023-11-19T03:58:12;94735.47;;;3.67;100.00
12785;BME280;6456;42.680;23.260;2023-11-19T04:00:39;94661.09;;;3.34;100.00
12785;BME280;6456;42.680;23.260;2023-11-19T04:03:06;94680.94;;;3.35;100.00
12785;BME280;6456;42.680;23.260;2023-11-19T04:05:33;94741.94;;;3.71;100.00
12785;BME280;6456;42.680;23.260;2023-11-19T04:08:02;94739.81;;;3.75;100.00
12785;BME280;6456;42.680;23.260;2023-11-19T04:10:31;94744.56;;;3.63;100.00
12785;BME280;6456;42.680;23.260;2023-11-19T04:12:58;94759.16;;;3.80;100.00
12785;BME280;6456;42.680;23.260;2023-11-19T04:15:24;94747.75;;;3.81;100.00
12785;BME280;6456;42.680;23.260;2023-11-19T04:17:52;94718.53;;;3.71;100.00
12785;BME280;6456;42.680;23.260;2023-11-19T04:20:19;94746.09;;;3.97;100.00
12785;BME280;6456;42.680;23.260;2023-11-19T04:22:46;94758.59;;;4.01;100.00
12785;BME280;6456;42.680;23.260;2023-11-19T04:25:15;94721.09;;;3.79;100.00
12785;BME280;6456;42.680;23.260;2023-11-19T04:27:42;94716.19;;;3.84;100.00
12785;BME280;6456;42.680;23.260;2023-11-19T04:30:10;94777.56;;;4.18;100.00
12785;BME280;6456;42.680;23.260;2023-11-19T04:32:37;94744.31;;;3.89;100.00
12785;BME280;6456;42.680;23.260;2023-11-19T04:35:05;94776.66;;;4.03;100.00
12785;BME280;6456;42.680;23.260;2023-11-19T04:37:32;94733.16;;;3.72;100.00
12785;BME280;6456;42.680;23.260;2023-11-19T04:40:02;94741.91;;;3.87;100.00
12785;BME280;6456;42.680;23.260;2023-11-19T04:42:31;94798.09;;;4.13;100.00
12785;BME280;6456;42.680;23.260;2023-11-19T04:44:58;94760.09;;;3.96;100.00
12785;BME280;6456;42.680;23.260;2023-11-19T04:47:25;94725.69;;;3.69;100.00
12785;BME280;6456;42.680;23.260;2023-11-19T04:49:52;94680.22;;;3.49;100.00
12785;BME280;6456;42.680;23.260;2023-11-19T04:52:19;94729.25;;;3.76;100.00
12785;BME280;6456;42.680;23.260;2023-11-19T04:54:46;94773.88;;;4.04;100.00
12785;BME280;6456;42.680;23.260;2023-11-19T04:57:13;94682.16;;;3.55;100.00
12785;BME280;6456;42.680;23.260;2023-11-19T04:59:42;94758.78;;;3.92;100.00
12785;BME280;6456;42.680;23.260;2023-11-19T05:02:09;94734.28;;;3.78;100.00
12785;BME280;6456;42.680;23.260;2023-11-19T05:04:36;94716.00;;;3.55;100.00
12785;BME280;6456;42.680;23.260;2023-11-19T05:07:03;94803.63;;;4.10;100.00
12785;BME280;6456;42.680;23.260;2023-11-19T05:09:31;94798.63;;;4.00;100.00
12785;BME280;6456;42.680;23.260;2023-11-19T05:11:58;94806.97;;;3.96;100.00
12785;BME280;6456;42.680;23.260;2023-11-19T05:14:29;94791.97;;;3.98;100.00
12785;BME280;6456;42.680;23.260;2023-11-19T05:16:58;94710.50;;;3.42;100.00
12785;BME280;6456;42.680;23.260;2023-11-19T05:19:26;94785.63;;;3.92;100.00
12785;BME280;6456;42.680;23.260;2023-11-19T05:21:53;94794.72;;;3.96;100.00
12785;BME280;6456;42.680;23.260;2023-11-19T05:24:20;94773.47;;;3.84;100.00
12785;BME280;6456;42.680;23.260;2023-11-19T05:26:49;94724.44;;;3.57;100.00
12785;BME280;6456;42.680;23.260;2023-11-19T05:29:17;94756.91;;;3.69;100.00
12785;BME280;6456;42.680;23.260;2023-11-19T05:31:44;94737.13;;;3.52;100.00
12785;BME280;6456;42.680;23.260;2023-11-19T05:39:23;94803.03;;;3.92;100.00
12785;BME280;6456;42.680;23.260;2023-11-19T05:41:50;94810.03;;;3.91;100.00
12785;BME280;6456;42.680;23.260;2023-11-19T05:44:17;94805.81;;;3.98;100.00
12785;BME280;6456;42.680;23.260;2023-11-19T05:46:44;94794.47;;;3.75;100.00
12785;BME280;6456;42.680;23.260;2023-11-19T05:49:14;94759.53;;;3.53;100.00
12785;BME280;6456;42.680;23.260;2023-11-19T05:51:41;94738.78;;;3.45;100.00
12785;BME280;6456;42.680;23.260;2023-11-19T05:54:08;94754.69;;;3.50;100.00
12785;BME280;6456;42.680;23.260;2023-11-19T05:56:37;94735.22;;;3.38;100.00
12785;BME280;6456;42.680;23.260;2023-11-19T05:59:04;94738.94;;;3.44;100.00
12785;BME280;6456;42.680;23.260;2023-11-19T06:01:33;94768.03;;;3.47;100.00
12785;BME280;6456;42.680;23.260;2023-11-19T06:04:00;94847.97;;;3.85;100.00
12785;BME280;6456;42.680;23.260;2023-11-19T06:06:28;94839.69;;;3.82;100.00
12785;BME280;6456;42.680;23.260;2023-11-19T06:08:54;94843.75;;;3.84;100.00
12785;BME280;6456;42.680;23.260;2023-11-19T06:11:21;94850.91;;;3.91;100.00
12785;BME280;6456;42.680;23.260;2023-11-19T06:13:50;94802.13;;;3.68;100.00
12785;BME280;6456;42.680;23.260;2023-11-19T06:16:17;94792.06;;;3.57;100.00
12785;BME280;6456;42.680;23.260;2023-11-19T06:18:44;94825.03;;;3.81;100.00
12785;BME280;6456;42.680;23.260;2023-11-19T06:21:11;94789.16;;;3.60;100.00
12785;BME280;6456;42.680;23.260;2023-11-19T06:23:38;94756.34;;;3.35;100.00
12785;BME280;6456;42.680;23.260;2023-11-19T06:26:05;94836.13;;;3.75;100.00
12785;BME280;6456;42.680;23.260;2023-11-19T06:28:32;94829.47;;;3.56;100.00
12785;BME280;6456;42.680;23.260;2023-11-19T06:31:01;94833.22;;;3.54;100.00
12785;BME280;6456;42.680;23.260;2023-11-19T06:33:28;94823.16;;;3.43;100.00
12785;BME280;6456;42.680;23.260;2023-11-19T06:35:54;94790.16;;;3.27;100.00
12785;BME280;6456;42.680;23.260;2023-11-19T06:38:24;94817.78;;;3.44;100.00
12785;BME280;6456;42.680;23.260;2023-11-19T06:40:51;94816.31;;;3.50;100.00
12785;BME280;6456;42.680;23.260;2023-11-19T06:43:18;94804.78;;;3.52;100.00
12785;BME280;6456;42.680;23.260;2023-11-19T06:45:47;94787.88;;;3.24;100.00
12785;BME280;6456;42.680;23.260;2023-11-19T06:48:22;94868.31;;;3.66;100.00
12785;BME280;6456;42.680;23.260;2023-11-19T06:50:48;94848.00;;;3.61;100.00
12785;BME280;6456;42.680;23.260;2023-11-19T06:53:15;94811.75;;;3.44;100.00
12785;BME280;6456;42.680;23.260;2023-11-19T06:55:48;94861.00;;;3.69;100.00
12785;BME280;6456;42.680;23.260;2023-11-19T06:58:15;94851.25;;;3.63;100.00
12785;BME280;6456;42.680;23.260;2023-11-19T07:00:43;94785.47;;;3.06;100.00
12785;BME280;6456;42.680;23.260;2023-11-19T07:03:16;94838.59;;;3.44;100.00
12785;BME280;6456;42.680;23.260;2023-11-19T07:05:44;94840.88;;;3.55;100.00
12785;BME280;6456;42.680;23.260;2023-11-19T07:08:11;94862.97;;;3.75;100.00
12785;BME280;6456;42.680;23.260;2023-11-19T07:10:38;94816.16;;;3.27;100.00
12785;BME280;6456;42.680;23.260;2023-11-19T07:13:05;94841.00;;;3.46;100.00
12785;BME280;6456;42.680;23.260;2023-11-19T07:15:32;94863.28;;;3.72;100.00
12785;BME280;6456;42.680;23.260;2023-11-19T07:17:59;94851.75;;;3.51;100.00
12785;BME280;6456;42.680;23.260;2023-11-19T07:20:26;94859.41;;;3.60;100.00
12785;BME280;6456;42.680;23.260;2023-11-19T07:22:55;94855.47;;;3.64;100.00
12785;BME280;6456;42.680;23.260;2023-11-19T07:25:22;94881.81;;;3.85;100.00
12785;BME280;6456;42.680;23.260;2023-11-19T07:27:51;94841.00;;;3.78;100.00
12785;BME280;6456;42.680;23.260;2023-11-19T07:30:19;94814.19;;;3.61;100.00
12785;BME280;6456;42.680;23.260;2023-11-19T07:32:46;94854.78;;;3.86;100.00
12785;BME280;6456;42.680;23.260;2023-11-19T07:35:13;94887.31;;;3.99;100.00
12785;BME280;6456;42.680;23.260;2023-11-19T07:37:41;94880.84;;;3.78;100.00
12785;BME280;6456;42.680;23.260;2023-11-19T07:40:10;94841.16;;;3.68;100.00
12785;BME280;6456;42.680;23.260;2023-11-19T07:42:37;94884.69;;;3.99;100.00
12785;BME280;6456;42.680;23.260;2023-11-19T07:45:05;94883.09;;;3.89;100.00
12785;BME280;6456;42.680;23.260;2023-11-19T07:47:32;94896.75;;;4.00;100.00
12785;BME280;6456;42.680;23.260;2023-11-19T07:49:59;94891.06;;;3.96;100.00
12785;BME280;6456;42.680;23.260;2023-11-19T07:52:26;94909.47;;;3.95;100.00
12785;BME280;6456;42.680;23.260;2023-11-19T07:54:54;94897.41;;;3.94;100.00
12785;BME280;6456;42.680;23.260;2023-11-19T07:57:22;94874.66;;;3.79;100.00
12785;BME280;6456;42.680;23.260;2023-11-19T07:59:50;94888.31;;;3.98;100.00
12785;BME280;6456;42.680;23.260;2023-11-19T08:02:17;94834.66;;;3.48;100.00
12785;BME280;6456;42.680;23.260;2023-11-19T08:04:44;94886.84;;;3.87;100.00
12785;BME280;6456;42.680;23.260;2023-11-19T08:07:11;94930.59;;;4.00;100.00
12785;BME280;6456;42.680;23.260;2023-11-19T08:09:38;94904.56;;;3.92;100.00
12785;BME280;6456;42.680;23.260;2023-11-19T08:12:06;94920.69;;;3.95;100.00
12785;BME280;6456;42.680;23.260;2023-11-19T08:14:35;94931.75;;;3.97;100.00
12785;BME280;6456;42.680;23.260;2023-11-19T08:17:02;94916.31;;;3.87;100.00
12785;BME280;6456;42.680;23.260;2023-11-19T08:19:29;94928.50;;;3.87;100.00
12785;BME280;6456;42.680;23.260;2023-11-19T08:21:56;94920.88;;;3.85;100.00
12785;BME280;6456;42.680;23.260;2023-11-19T08:24:23;94922.31;;;3.80;100.00
12785;BME280;6456;42.680;23.260;2023-11-19T08:26:50;94935.81;;;3.83;100.00
12785;BME280;6456;42.680;23.260;2023-11-19T08:29:17;94894.53;;;3.64;100.00
12785;BME280;6456;42.680;23.260;2023-11-19T08:31:45;94927.03;;;3.93;100.00
12785;BME280;6456;42.680;23.260;2023-11-19T08:34:12;94871.59;;;3.60;100.00
12785;BME280;6456;42.680;23.260;2023-11-19T08:36:39;94906.34;;;3.91;100.00
12785;BME280;6456;42.680;23.260;2023-11-19T08:39:06;94930.44;;;4.01;100.00
12785;BME280;6456;42.680;23.260;2023-11-19T08:41:34;94875.81;;;3.77;100.00
12785;BME280;6456;42.680;23.260;2023-11-19T08:44:00;94924.44;;;4.01;100.00
12785;BME280;6456;42.680;23.260;2023-11-19T08:46:28;94915.28;;;4.05;100.00
12785;BME280;6456;42.680;23.260;2023-11-19T08:48:56;94930.91;;;4.13;100.00
12785;BME280;6456;42.680;23.260;2023-11-19T08:51:25;94879.09;;;3.63;100.00
12785;BME280;6456;42.680;23.260;2023-11-19T08:53:53;94924.06;;;4.04;100.00
12785;BME280;6456;42.680;23.260;2023-11-19T08:56:21;94893.34;;;3.91;100.00
12785;BME280;6456;42.680;23.260;2023-11-19T08:58:48;94935.91;;;4.30;100.00
12785;BME280;6456;42.680;23.260;2023-11-19T09:01:15;94871.69;;;3.99;100.00
12785;BME280;6456;42.680;23.260;2023-11-19T09:03:42;94898.72;;;4.06;100.00
12785;BME280;6456;42.680;23.260;2023-11-19T09:06:10;94881.75;;;4.10;100.00
12785;BME280;6456;42.680;23.260;2023-11-19T09:08:37;94910.66;;;4.31;100.00
12785;BME280;6456;42.680;23.260;2023-11-19T09:11:07;94887.88;;;4.33;100.00
12785;BME280;6456;42.680;23.260;2023-11-19T09:13:34;94886.22;;;4.48;100.00
12785;BME280;6456;42.680;23.260;2023-11-19T09:16:01;94857.63;;;4.24;100.00
12785;BME280;6456;42.680;23.260;2023-11-19T09:18:29;94854.66;;;4.35;100.00
12785;BME280;6456;42.680;23.260;2023-11-19T09:20:56;94846.09;;;4.18;100.00
12785;BME280;6456;42.680;23.260;2023-11-19T09:23:24;94909.47;;;4.49;100.00
12785;BME280;6456;42.680;23.260;2023-11-19T09:25:53;94936.69;;;4.47;100.00
12785;BME280;6456;42.680;23.260;2023-11-19T09:28:20;94945.97;;;4.41;100.00
12785;BME280;6456;42.680;23.260;2023-11-19T09:30:47;94935.03;;;4.46;100.00
12785;BME280;6456;42.680;23.260;2023-11-19T09:33:14;94889.69;;;4.24;100.00
12785;BME280;6456;42.680;23.260;2023-11-19T09:35:41;94933.25;;;4.46;100.00
12785;BME280;6456;42.680;23.260;2023-11-19T09:38:08;94864.13;;;4.28;100.00
12785;BME280;6456;42.680;23.260;2023-11-19T09:40:36;94910.75;;;4.53;100.00
12785;BME280;6456;42.680;23.260;2023-11-19T09:43:04;94895.31;;;4.52;100.00
12785;BME280;6456;42.680;23.260;2023-11-19T09:45:32;94870.91;;;4.45;100.00
12785;BME280;6456;42.680;23.260;2023-11-19T09:48:03;94843.91;;;4.38;100.00
12785;BME280;6456;42.680;23.260;2023-11-19T09:50:31;94821.22;;;4.08;100.00
12785;BME280;6456;42.680;23.260;2023-11-19T09:52:58;94851.88;;;4.36;100.00
12785;BME280;6456;42.680;23.260;2023-11-19T09:55:25;94860.78;;;4.50;100.00
12785;BME280;6456;42.680;23.260;2023-11-19T09:57:53;94812.97;;;4.35;100.00
12785;BME280;6456;42.680;23.260;2023-11-19T10:00:21;94810.16;;;4.44;100.00
12785;BME280;6456;42.680;23.260;2023-11-19T10:02:48;94859.06;;;4.73;100.00
12785;BME280;6456;42.680;23.260;2023-11-19T10:05:16;94780.56;;;4.37;100.00
12785;BME280;6456;42.680;23.260;2023-11-19T10:07:43;94851.75;;;4.91;100.00
12785;BME280;6456;42.680;23.260;2023-11-19T10:10:10;94817.34;;;4.73;100.00
12785;BME280;6456;42.680;23.260;2023-11-19T10:12:44;94803.66;;;4.71;100.00
12785;BME280;6456;42.680;23.260;2023-11-19T10:15:19;94779.88;;;4.43;100.00
12785;BME280;6456;42.680;23.260;2023-11-19T10:17:46;94827.47;;;4.68;100.00
12785;BME280;6456;42.680;23.260;2023-11-19T10:20:13;94832.50;;;4.70;100.00
12785;BME280;6456;42.680;23.260;2023-11-19T10:22:40;94876.25;;;4.82;100.00
12785;BME280;6456;42.680;23.260;2023-11-19T10:25:21;94854.44;;;4.83;100.00
12785;BME280;6456;42.680;23.260;2023-11-19T10:27:48;94863.22;;;4.82;100.00
12785;BME280;6456;42.680;23.260;2023-11-19T10:30:20;94846.78;;;4.82;100.00
12785;BME280;6456;42.680;23.260;2023-11-19T10:33:03;94832.28;;;4.79;100.00
12785;BME280;6456;42.680;23.260;2023-11-19T10:35:30;94823.06;;;4.69;100.00
12785;BME280;6456;42.680;23.260;2023-11-19T10:37:59;94780.41;;;4.62;100.00
12785;BME280;6456;42.680;23.260;2023-11-19T10:40:37;94800.06;;;4.72;100.00
12785;BME280;6456;42.680;23.260;2023-11-19T10:43:06;94857.28;;;4.96;100.00
12785;BME280;6456;42.680;23.260;2023-11-19T10:45:34;94833.00;;;4.96;100.00
12785;BME280;6456;42.680;23.260;2023-11-19T10:48:02;94811.38;;;4.87;100.00
12785;BME280;6456;42.680;23.260;2023-11-19T10:50:32;94825.19;;;4.96;100.00
12785;BME280;6456;42.680;23.260;2023-11-19T10:52:59;94808.78;;;4.87;100.00
12785;BME280;6456;42.680;23.260;2023-11-19T10:55:28;94799.22;;;5.02;100.00
12785;BME280;6456;42.680;23.260;2023-11-19T10:57:59;94825.09;;;5.27;100.00
12785;BME280;6456;42.680;23.260;2023-11-19T11:00:29;94828.13;;;5.38;100.00
12785;BME280;6456;42.680;23.260;2023-11-19T11:03:02;94818.97;;;5.42;100.00
12785;BME280;6456;42.680;23.260;2023-11-19T11:05:32;94821.78;;;5.55;100.00
12785;BME280;6456;42.680;23.260;2023-11-19T11:08:00;94808.63;;;5.49;100.00
12785;BME280;6456;42.680;23.260;2023-11-19T11:10:28;94794.41;;;5.51;100.00
12785;BME280;6456;42.680;23.260;2023-11-19T11:12:59;94774.78;;;5.41;100.00
12785;BME280;6456;42.680;23.260;2023-11-19T11:15:30;94759.00;;;5.34;100.00
12785;BME280;6456;42.680;23.260;2023-11-19T11:18:01;94792.00;;;5.64;100.00
12785;BME280;6456;42.680;23.260;2023-11-19T11:20:30;94775.06;;;5.46;100.00
12785;BME280;6456;42.680;23.260;2023-11-19T11:23:17;94725.22;;;5.03;100.00
12785;BME280;6456;42.680;23.260;2023-11-19T11:25:54;94742.97;;;5.23;100.00
12785;BME280;6456;42.680;23.260;2023-11-19T11:28:30;94775.25;;;5.59;100.00
12785;BME280;6456;42.680;23.260;2023-11-19T11:31:09;94732.91;;;5.19;100.00
12785;BME280;6456;42.680;23.260;2023-11-19T11:34:15;94737.78;;;5.37;100.00
12785;BME280;6456;42.680;23.260;2023-11-19T11:36:53;94756.94;;;5.44;100.00
12785;BME280;6456;42.680;23.260;2023-11-19T11:39:24;94769.84;;;5.60;100.00
12785;BME280;6456;42.680;23.260;2023-11-19T11:45:08;94730.25;;;5.57;100.00
12785;BME280;6456;42.680;23.260;2023-11-19T11:48:09;94763.56;;;5.84;100.00
12785;BME280;6456;42.680;23.260;2023-11-19T11:50:52;94712.16;;;5.55;100.00
12785;BME280;6456;42.680;23.260;2023-11-19T11:53:21;94736.00;;;5.81;100.00
12785;BME280;6456;42.680;23.260;2023-11-19T11:55:54;94685.69;;;5.44;100.00
12785;BME280;6456;42.680;23.260;2023-11-19T11:58:30;94754.94;;;5.83;100.00
12785;BME280;6456;42.680;23.260;2023-11-19T12:00:59;94747.47;;;5.80;100.00
12785;BME280;6456;42.680;23.260;2023-11-19T12:03:28;94700.44;;;5.51;100.00
12785;BME280;6456;42.680;23.260;2023-11-19T12:05:58;94708.94;;;5.68;100.00
12785;BME280;6456;42.680;23.260;2023-11-19T12:08:27;94740.00;;;5.92;100.00
12785;BME280;6456;42.680;23.260;2023-11-19T12:10:56;94745.84;;;5.94;100.00
12785;BME280;6456;42.680;23.260;2023-11-19T12:13:27;94712.81;;;6.01;100.00
12785;BME280;6456;42.680;23.260;2023-11-19T12:16:08;94745.19;;;6.21;100.00
12785;BME280;6456;42.680;23.260;2023-11-19T12:18:38;94734.94;;;6.20;99.94
12785;BME280;6456;42.680;23.260;2023-11-19T12:21:07;94694.72;;;5.85;100.00
12785;BME280;6456;42.680;23.260;2023-11-19T12:23:44;94740.16;;;6.20;99.97
12785;BME280;6456;42.680;23.260;2023-11-19T12:26:35;94715.28;;;6.24;100.00
12785;BME280;6456;42.680;23.260;2023-11-19T12:29:02;94726.19;;;6.27;100.00
12785;BME280;6456;42.680;23.260;2023-11-19T12:31:32;94718.97;;;6.29;100.00
12785;BME280;6456;42.680;23.260;2023-11-19T12:34:11;94656.34;;;6.00;99.56
12785;BME280;6456;42.680;23.260;2023-11-19T12:36:42;94726.13;;;6.42;100.00
12785;BME280;6456;42.680;23.260;2023-11-19T12:39:09;94711.97;;;6.51;100.00
12785;BME280;6456;42.680;23.260;2023-11-19T12:41:52;94715.53;;;6.43;99.12
12785;BME280;6456;42.680;23.260;2023-11-19T12:44:19;94717.75;;;6.46;100.00
12785;BME280;6456;42.680;23.260;2023-11-19T12:46:59;94687.59;;;6.29;100.00
12785;BME280;6456;42.680;23.260;2023-11-19T12:49:26;94673.47;;;6.24;100.00
12785;BME280;6456;42.680;23.260;2023-11-19T12:51:55;94636.56;;;6.12;100.00
12785;BME280;6456;42.680;23.260;2023-11-19T12:54:32;94686.50;;;6.38;100.00
12785;BME280;6456;42.680;23.260;2023-11-19T12:56:59;94632.84;;;6.21;100.00
12785;BME280;6456;42.680;23.260;2023-11-19T12:59:26;94634.72;;;6.27;100.00
12785;BME280;6456;42.680;23.260;2023-11-19T13:01:54;94684.81;;;6.52;100.00
12785;BME280;6456;42.680;23.260;2023-11-19T13:04:21;94689.22;;;6.66;100.00
12785;BME280;6456;42.680;23.260;2023-11-19T13:06:50;94652.66;;;6.30;98.92
12785;BME280;6456;42.680;23.260;2023-11-19T13:09:24;94683.03;;;6.53;97.68
12785;BME280;6456;42.680;23.260;2023-11-19T13:11:52;94663.25;;;6.43;97.37
12785;BME280;6456;42.680;23.260;2023-11-19T13:14:19;94688.41;;;6.66;97.03
12785;BME280;6456;42.680;23.260;2023-11-19T13:16:46;94695.31;;;6.73;97.01